Time,TemperatureF,DewpointF,PressureIn,WindDirection,WindDirectionDegrees,WindSpeedMPH,WindSpeedGustMPH,Humidity,HourlyPrecipIn,Conditions,Clouds,dailyrainin,SoftwareType,DateUTC
2013-06-21 00:10:00,81.3,39.9,29.56,WNW,292,6.8,-999.0,23,-99.99,,,0.00,Acu-Link.com,2013-06-21 07:10:00,
2013-06-21 00:25:00,81.3,38.8,29.56,NNW,337,11.4,-999.0,22,-99.99,,,0.00,Acu-Link.com,2013-06-21 07:25:00,
2013-06-21 00:40:00,81.5,37.8,29.56,WNW,292,7.8,-999.0,21,-99.99,,,0.00,Acu-Link.com,2013-06-21 07:40:00,
2013-06-21 00:55:00,81.1,38.6,29.56,West,270,8.9,-999.0,22,-99.99,,,0.00,Acu-Link.com,2013-06-21 07:55:00,
2013-06-21 01:11:00,80.2,40.1,29.56,West,270,13.0,-999.0,24,-99.99,,,0.00,Acu-Link.com,2013-06-21 08:11:00,
2013-06-21 01:26:00,79.9,39.9,29.55,West,270,5.8,-999.0,24,-99.99,,,0.00,Acu-Link.com,2013-06-21 08:26:00,
2013-06-21 01:41:00,79.5,40.6,29.56,West,270,5.3,-999.0,25,-99.99,,,0.00,Acu-Link.com,2013-06-21 08:41:00,
2013-06-21 01:56:00,79.7,38.6,29.55,West,270,7.8,-999.0,23,-99.99,,,0.00,Acu-Link.com,2013-06-21 08:56:00,
2013-06-21 02:12:00,79.9,36.5,29.55,North,0,11.4,-999.0,21,-99.99,,,0.00,Acu-Link.com,2013-06-21 09:12:00,
2013-06-21 02:27:00,79.3,37.1,29.55,NW,315,9.9,-999.0,22,-99.99,,,0.00,Acu-Link.com,2013-06-21 09:27:00,
2013-06-21 02:42:00,78.8,37.9,29.56,NNW,337,5.8,-999.0,23,-99.99,,,0.00,Acu-Link.com,2013-06-21 09:42:00,
2013-06-21 02:57:00,79.2,37.1,29.55,WNW,292,8.9,-999.0,22,-99.99,,,0.00,Acu-Link.com,2013-06-21 09:57:00,
2013-06-21 03:12:00,79.2,37.1,29.55,WSW,247,6.3,-999.0,22,-99.99,,,0.00,Acu-Link.com,2013-06-21 10:12:00,
2013-06-21 03:27:00,79.3,36.0,29.55,NW,315,11.4,-999.0,21,-99.99,,,0.00,Acu-Link.com,2013-06-21 10:27:00,
2013-06-21 03:42:00,78.4,37.5,29.55,SW,225,7.8,-999.0,23,-99.99,,,0.00,Acu-Link.com,2013-06-21 10:42:00,
2013-06-21 03:57:00,78.1,37.3,29.55,North,0,10.9,-999.0,23,-99.99,,,0.00,Acu-Link.com,2013-06-21 10:57:00,
2013-06-21 04:13:00,78.3,37.4,29.55,South,180,7.3,-999.0,23,-99.99,,,0.00,Acu-Link.com,2013-06-21 11:13:00,
2013-06-21 04:28:00,77.7,39.1,29.55,WSW,247,11.4,-999.0,25,-99.99,,,0.00,Acu-Link.com,2013-06-21 11:28:00,
2013-06-21 04:43:00,78.3,37.4,29.56,West,270,7.3,-999.0,23,-99.99,,,0.00,Acu-Link.com,2013-06-21 11:43:00,
2013-06-21 04:58:00,78.8,35.6,29.55,West,270,6.3,-999.0,21,-99.99,,,0.00,Acu-Link.com,2013-06-21 11:58:00,
2013-06-21 05:13:00,78.3,35.1,29.56,NW,315,11.4,-999.0,21,-99.99,,,0.00,Acu-Link.com,2013-06-21 12:13:00,
2013-06-21 05:28:00,78.1,35.0,29.57,WNW,292,8.3,-999.0,21,-99.99,,,0.00,Acu-Link.com,2013-06-21 12:28:00,
2013-06-21 05:43:00,77.7,35.8,29.58,West,270,8.3,-999.0,22,-99.99,,,0.00,Acu-Link.com,2013-06-21 12:43:00,
2013-06-21 05:58:00,77.9,36.0,29.58,NW,315,10.4,-999.0,22,-99.99,,,0.00,Acu-Link.com,2013-06-21 12:58:00,
2013-06-21 06:13:00,77.4,38.8,29.58,West,270,9.4,-999.0,25,-99.99,,,0.00,Acu-Link.com,2013-06-21 13:13:00,
2013-06-21 06:28:00,78.4,37.5,29.59,WSW,247,10.4,-999.0,23,-99.99,,,0.00,Acu-Link.com,2013-06-21 13:28:00,
2013-06-21 06:43:00,79.7,37.5,29.59,SW,225,7.8,-999.0,22,-99.99,,,0.00,Acu-Link.com,2013-06-21 13:43:00,
2013-06-21 06:58:00,80.2,36.7,29.59,West,270,11.4,-999.0,21,-99.99,,,0.00,Acu-Link.com,2013-06-21 13:58:00,
2013-06-21 07:14:00,80.2,37.9,29.60,WNW,292,7.3,-999.0,22,-99.99,,,0.00,Acu-Link.com,2013-06-21 14:14:00,
2013-06-21 07:29:00,81.3,38.8,29.61,NW,315,7.3,-999.0,22,-99.99,,,0.00,Acu-Link.com,2013-06-21 14:29:00,
2013-06-21 07:44:00,82.0,38.2,29.61,WNW,292,4.7,-999.0,21,-99.99,,,0.00,Acu-Link.com,2013-06-21 14:44:00,
2013-06-21 07:59:00,84.2,37.5,29.61,West,270,8.3,-999.0,19,-99.99,,,0.00,Acu-Link.com,2013-06-21 14:59:00,
2013-06-21 08:14:00,84.4,38.9,29.63,West,270,6.3,-999.0,20,-99.99,,,0.00,Acu-Link.com,2013-06-21 15:14:00,
2013-06-21 08:29:00,85.5,37.1,29.62,WNW,292,7.3,-999.0,18,-99.99,,,0.00,Acu-Link.com,2013-06-21 15:29:00,
2013-06-21 08:44:00,85.8,37.4,29.63,West,270,6.8,-999.0,18,-99.99,,,0.00,Acu-Link.com,2013-06-21 15:44:00,
2013-06-21 08:59:00,86.9,36.8,29.62,West,270,9.4,-999.0,17,-99.99,,,0.00,Acu-Link.com,2013-06-21 15:59:00,
2013-06-21 09:15:00,88.0,37.7,29.63,NNE,22,5.3,-999.0,17,-99.99,,,0.00,Acu-Link.com,2013-06-21 16:15:00,
2013-06-21 09:30:00,88.7,36.7,29.62,NNW,337,7.3,-999.0,16,-99.99,,,0.00,Acu-Link.com,2013-06-21 16:30:00,
2013-06-21 09:45:00,89.6,35.8,29.62,West,270,3.7,-999.0,15,-99.99,,,0.00,Acu-Link.com,2013-06-21 16:45:00,
2013-06-21 10:00:00,91.0,33.3,29.63,West,270,6.3,-999.0,13,-99.99,,,0.00,Acu-Link.com,2013-06-21 17:00:00,
2013-06-21 10:46:00,93.7,37.3,29.62,South,180,3.7,-999.0,14,-99.99,,,0.00,Acu-Link.com,2013-06-21 17:46:00,
2013-06-21 11:01:00,93.9,37.4,29.62,SSE,157,3.2,-999.0,14,-99.99,,,0.00,Acu-Link.com,2013-06-21 18:01:00,
2013-06-21 11:16:00,95.0,34.4,29.63,South,180,3.7,-999.0,12,-99.99,,,0.00,Acu-Link.com,2013-06-21 18:16:00,
2013-06-21 11:32:00,96.4,33.3,29.63,SSE,157,2.7,-999.0,11,-99.99,,,0.00,Acu-Link.com,2013-06-21 18:32:00,
2013-06-21 11:47:00,97.3,31.6,29.62,SSW,202,4.7,-999.0,10,-99.99,,,0.00,Acu-Link.com,2013-06-21 18:47:00,
2013-06-21 12:02:00,97.7,26.5,29.61,NNW,337,4.7,-999.0,8,-99.99,,,0.00,Acu-Link.com,2013-06-21 19:02:00,
2013-06-21 12:17:00,98.4,27.0,29.61,West,270,5.3,-999.0,8,-99.99,,,0.00,Acu-Link.com,2013-06-21 19:17:00,
2013-06-21 12:32:00,98.6,23.9,29.60,West,270,5.3,-999.0,7,-99.99,,,0.00,Acu-Link.com,2013-06-21 19:32:00,
2013-06-21 12:47:00,99.7,27.9,29.61,West,270,4.7,-999.0,8,-99.99,,,0.00,Acu-Link.com,2013-06-21 19:47:00,
2013-06-21 13:03:00,99.7,27.9,29.60,WSW,247,6.8,-999.0,8,-99.99,,,0.00,Acu-Link.com,2013-06-21 20:03:00,
2013-06-21 13:18:00,99.0,27.4,29.59,NNW,337,9.9,-999.0,8,-99.99,,,0.00,Acu-Link.com,2013-06-21 20:18:00,
2013-06-21 13:33:00,99.5,27.8,29.59,NNW,337,8.9,-999.0,8,-99.99,,,0.00,Acu-Link.com,2013-06-21 20:33:00,
2013-06-21 14:03:00,100.0,31.0,29.57,SSW,202,4.2,-999.0,9,-99.99,,,0.00,Acu-Link.com,2013-06-21 21:03:00,
2013-06-21 14:18:00,99.3,27.6,29.57,WSW,247,3.2,-999.0,8,-99.99,,,0.00,Acu-Link.com,2013-06-21 21:18:00,
2013-06-21 14:33:00,100.6,28.6,29.57,West,270,6.3,-999.0,8,-99.99,,,0.00,Acu-Link.com,2013-06-21 21:33:00,
2013-06-21 14:49:00,101.3,29.1,29.57,WSW,247,6.3,-999.0,8,-99.99,,,0.00,Acu-Link.com,2013-06-21 21:49:00,
2013-06-21 15:04:00,101.5,29.2,29.55,NNW,337,5.8,-999.0,8,-99.99,,,0.00,Acu-Link.com,2013-06-21 22:04:00,
2013-06-21 15:19:00,102.0,29.6,29.54,South,180,8.9,-999.0,8,-99.99,,,0.00,Acu-Link.com,2013-06-21 22:19:00,
2013-06-21 15:34:00,102.0,29.6,29.54,WNW,292,7.8,-999.0,8,-99.99,,,0.00,Acu-Link.com,2013-06-21 22:34:00,
2013-06-21 15:49:00,102.2,29.7,29.54,ENE,67,4.7,-999.0,8,-99.99,,,0.00,Acu-Link.com,2013-06-21 22:49:00,
2013-06-21 16:04:00,101.3,25.9,29.53,WSW,247,5.8,-999.0,7,-99.99,,,0.00,Acu-Link.com,2013-06-21 23:04:00,
2013-06-21 16:19:00,101.3,25.9,29.52,West,270,5.8,-999.0,7,-99.99,,,0.00,Acu-Link.com,2013-06-21 23:19:00,
2013-06-21 16:34:00,101.8,26.2,29.53,West,270,6.8,-999.0,7,-99.99,,,0.00,Acu-Link.com,2013-06-21 23:34:00,
2013-06-21 16:49:00,101.5,32.1,29.51,WSW,247,8.9,-999.0,9,-99.99,,,0.00,Acu-Link.com,2013-06-21 23:49:00,
2013-06-21 17:04:00,100.8,34.2,29.52,West,270,8.3,-999.0,10,-99.99,,,0.00,Acu-Link.com,2013-06-22 00:04:00,
2013-06-21 17:35:00,98.8,35.1,29.50,West,270,6.8,-999.0,11,-99.99,,,0.00,Acu-Link.com,2013-06-22 00:35:00,
2013-06-21 17:50:00,99.1,37.5,29.50,SW,225,13.0,-999.0,12,-99.99,,,0.00,Acu-Link.com,2013-06-22 00:50:00,
2013-06-21 18:05:00,98.4,37.0,29.49,NW,315,8.9,-999.0,12,-99.99,,,0.00,Acu-Link.com,2013-06-22 01:05:00,
2013-06-21 18:20:00,98.1,34.6,29.49,WNW,292,9.4,-999.0,11,-99.99,,,0.00,Acu-Link.com,2013-06-22 01:20:00,
2013-06-21 18:35:00,96.6,33.4,29.50,WSW,247,7.8,-999.0,11,-99.99,,,0.00,Acu-Link.com,2013-06-22 01:35:00,
2013-06-21 18:50:00,95.9,32.9,29.51,WSW,247,9.9,-999.0,11,-99.99,,,0.00,Acu-Link.com,2013-06-22 01:50:00,
2013-06-21 19:05:00,95.2,34.6,29.51,SW,225,9.4,-999.0,12,-99.99,,,0.00,Acu-Link.com,2013-06-22 02:05:00,
2013-06-21 19:20:00,93.0,38.5,29.50,WNW,292,9.9,-999.0,15,-99.99,,,0.00,Acu-Link.com,2013-06-22 02:20:00,
2013-06-21 19:36:00,90.7,38.3,29.51,West,270,5.8,-999.0,16,-99.99,,,0.00,Acu-Link.com,2013-06-22 02:36:00,
2013-06-21 19:51:00,89.1,38.6,29.51,West,270,11.4,-999.0,17,-99.99,,,0.00,Acu-Link.com,2013-06-22 02:51:00,
2013-06-21 20:06:00,88.0,39.2,29.51,West,270,9.4,-999.0,18,-99.99,,,0.00,Acu-Link.com,2013-06-22 03:06:00,
2013-06-21 20:21:00,86.9,41.0,29.52,North,0,13.5,-999.0,20,-99.99,,,0.00,Acu-Link.com,2013-06-22 03:21:00,
2013-06-21 20:36:00,86.4,41.8,29.53,NW,315,15.0,-999.0,21,-99.99,,,0.00,Acu-Link.com,2013-06-22 03:36:00,
2013-06-21 20:51:00,85.5,42.3,29.54,West,270,10.9,-999.0,22,-99.99,,,0.00,Acu-Link.com,2013-06-22 03:51:00,
2013-06-21 21:06:00,85.1,42.0,29.54,West,270,8.9,-999.0,22,-99.99,,,0.00,Acu-Link.com,2013-06-22 04:06:00,
2013-06-21 21:22:00,84.6,41.5,29.54,West,270,17.6,-999.0,22,-99.99,,,0.00,Acu-Link.com,2013-06-22 04:22:00,
2013-06-21 21:37:00,84.2,42.4,29.55,WSW,247,8.9,-999.0,23,-99.99,,,0.00,Acu-Link.com,2013-06-22 04:37:00,
2013-06-21 21:52:00,84.2,41.2,29.55,West,270,9.9,-999.0,22,-99.99,,,0.00,Acu-Link.com,2013-06-22 04:52:00,
2013-06-21 22:07:00,84.2,41.2,29.55,West,270,10.4,-999.0,22,-99.99,,,0.00,Acu-Link.com,2013-06-22 05:07:00,
2013-06-21 22:22:00,83.7,40.8,29.55,West,270,15.0,-999.0,22,-99.99,,,0.00,Acu-Link.com,2013-06-22 05:22:00,
2013-06-21 22:37:00,83.8,39.7,29.56,West,270,8.9,-999.0,21,-99.99,,,0.00,Acu-Link.com,2013-06-22 05:37:00,
2013-06-21 22:52:00,83.5,41.8,29.56,WSW,247,11.9,-999.0,23,-99.99,,,0.00,Acu-Link.com,2013-06-22 05:52:00,
2013-06-21 23:07:00,83.3,41.6,29.56,West,270,10.9,-999.0,23,-99.99,,,0.00,Acu-Link.com,2013-06-22 06:07:00,
2013-06-21 23:22:00,83.1,41.4,29.55,NNW,337,9.4,-999.0,23,-99.99,,,0.00,Acu-Link.com,2013-06-22 06:22:00,
2013-06-21 23:37:00,82.4,42.0,29.55,NNW,337,13.5,-999.0,24,-99.99,,,0.00,Acu-Link.com,2013-06-22 06:37:00,
2013-06-21 23:52:00,81.9,41.5,29.56,West,270,8.3,-999.0,24,-99.99,,,0.00,Acu-Link.com,2013-06-22 06:52:00,